Time;durP1;ratioP1;P1;durP2;ratioP2;P2;SDS_P1;SDS_P2;PMS_P1;PMS_P2;Temp;Humidity;BMP_temperature;BMP_pressure;BME280_temperature;BME280_humidity;BME280_pressure;Samples;Min_cycle;Max_cycle;Signal;HPM_P1;HPM_P2
2024/01/30 00:02:10;;;;;;;15.35;8.15;;;;;;;-147.95;100.00;58458.38;4968025;28;20038;-84
2024/01/30 00:04:35;;;;;;;10.40;7.88;;;;;;;-147.95;100.00;58458.38;4939377;28;20081;-85
2024/01/30 00:07:02;;;;;;;12.90;7.95;;;;;;;-147.95;100.00;58458.38;4935830;28;20090;-85
2024/01/30 00:09:28;;;;;;;14.23;8.57;;;;;;;-147.95;100.00;58458.38;4956479;28;20030;-84
2024/01/30 00:11:56;;;;;;;12.13;8.15;;;;;;;-147.95;100.00;58458.38;4957241;28;20035;-85
2024/01/30 00:14:21;;;;;;;12.73;7.50;;;;;;;-147.95;100.00;58458.38;4956631;28;20073;-83
2024/01/30 00:16:48;;;;;;;13.75;8.85;;;;;;;-147.95;100.00;58458.38;4936270;28;20070;-84
2024/01/30 00:19:14;;;;;;;14.02;8.88;;;;;;;-147.95;100.00;58458.38;4966908;28;20490;-85
2024/01/30 00:21:42;;;;;;;13.30;8.82;;;;;;;-147.95;100.00;58458.38;4954172;28;20516;-85
2024/01/30 00:24:07;;;;;;;13.60;8.25;;;;;;;-147.95;100.00;58458.38;4970487;28;20102;-85
2024/01/30 00:26:33;;;;;;;12.15;8.32;;;;;;;-147.95;100.00;58458.38;4958925;28;20125;-85
2024/01/30 00:28:59;;;;;;;12.63;8.90;;;;;;;-147.95;100.00;58458.38;4958089;28;20027;-85
2024/01/30 00:31:26;;;;;;;14.15;7.95;;;;;;;-147.95;100.00;58458.38;4957335;28;20396;-85
2024/01/30 00:33:51;;;;;;;15.20;8.50;;;;;;;-147.95;100.00;58458.38;4956832;28;20035;-85
2024/01/30 00:36:17;;;;;;;12.10;8.40;;;;;;;-147.95;100.00;58458.38;4952412;28;20050;-85
2024/01/30 00:38:42;;;;;;;12.45;8.73;;;;;;;-147.95;100.00;58458.38;4954755;28;20121;-85
2024/01/30 00:41:09;;;;;;;13.07;8.57;;;;;;;-147.95;100.00;58458.38;4970455;28;20053;-85
2024/01/30 00:43:35;;;;;;;12.00;8.38;;;;;;;-147.95;100.00;58458.38;4971163;28;20058;-84
2024/01/30 00:46:01;;;;;;;17.35;8.65;;;;;;;-147.95;100.00;58458.38;4970322;28;20026;-85
2024/01/30 00:48:26;;;;;;;12.55;8.90;;;;;;;-147.95;100.00;58458.38;4965656;28;20030;-86
2024/01/30 00:50:52;;;;;;;13.50;8.90;;;;;;;-147.95;100.00;58458.38;4941907;28;20038;-86
2024/01/30 00:53:17;;;;;;;16.00;9.25;;;;;;;-147.95;100.00;58458.38;4969319;28;20039;-86
2024/01/30 00:55:44;;;;;;;13.13;8.32;;;;;;;-147.95;100.00;58458.38;4955416;28;20053;-85
2024/01/30 00:58:10;;;;;;;13.38;8.25;;;;;;;-147.95;100.00;58458.38;4968903;28;20511;-86
2024/01/30 01:00:37;;;;;;;14.43;8.38;;;;;;;-147.95;100.00;58458.38;4953308;28;20030;-86
2024/01/30 01:03:03;;;;;;;11.52;7.95;;;;;;;-147.95;100.00;58458.38;4953896;28;20047;-86
2024/01/30 01:05:29;;;;;;;13.23;8.75;;;;;;;-147.95;100.00;58458.38;4958166;28;20054;-86
2024/01/30 01:07:54;;;;;;;12.90;8.25;;;;;;;-147.95;100.00;58458.38;4956892;28;20534;-86
2024/01/30 01:10:20;;;;;;;13.32;7.93;;;;;;;-147.95;100.00;58458.38;4940641;28;20125;-85
2024/01/30 01:12:47;;;;;;;14.13;8.80;;;;;;;-147.95;100.00;58458.38;4956392;28;20039;-86
2024/01/30 01:15:13;;;;;;;12.77;8.25;;;;;;;-147.95;100.00;58458.38;4966646;28;20035;-87
2024/01/30 01:17:39;;;;;;;15.20;9.02;;;;;;;-147.95;100.00;58458.38;4953801;28;20038;-86
2024/01/30 01:20:06;;;;;;;14.45;8.80;;;;;;;-147.95;100.00;58458.38;4972449;28;20030;-85
2024/01/30 01:22:32;;;;;;;12.57;8.50;;;;;;;-147.95;100.00;58458.38;4962918;28;20038;-86
2024/01/30 01:24:57;;;;;;;13.07;8.27;;;;;;;-147.95;100.00;58458.38;4953277;28;20034;-86
2024/01/30 01:27:23;;;;;;;11.25;8.25;;;;;;;-147.95;100.00;58458.38;4953799;28;20035;-85
2024/01/30 01:29:49;;;;;;;14.45;8.52;;;;;;;-147.95;100.00;58458.38;4972626;28;20429;-86
2024/01/30 01:32:14;;;;;;;12.02;8.75;;;;;;;-147.95;100.00;58458.38;4969281;28;20041;-86
2024/01/30 01:34:39;;;;;;;13.02;8.45;;;;;;;-147.95;100.00;58458.38;4967688;28;20031;-86
2024/01/30 01:37:05;;;;;;;13.40;8.60;;;;;;;-147.95;100.00;58458.38;4940980;28;20523;-86
2024/01/30 01:39:31;;;;;;;10.55;7.47;;;;;;;-147.95;100.00;58458.38;4951254;28;20041;-86
2024/01/30 01:41:56;;;;;;;12.63;7.85;;;;;;;-147.95;100.00;58458.38;4955220;28;20097;-86
2024/01/30 01:44:21;;;;;;;12.30;7.63;;;;;;;-147.95;100.00;58458.38;4935004;28;20075;-86
2024/01/30 01:46:48;;;;;;;11.23;8.30;;;;;;;-147.95;100.00;58458.38;4953271;28;20386;-86
2024/01/30 01:49:14;;;;;;;10.10;7.65;;;;;;;-147.95;100.00;58458.38;4940579;28;20027;-86
2024/01/30 01:51:42;;;;;;;14.43;8.57;;;;;;;-147.95;100.00;58458.38;4971145;28;20101;-86
2024/01/30 01:54:09;;;;;;;14.57;8.27;;;;;;;-147.95;100.00;58458.38;4935580;28;20090;-86
2024/01/30 01:56:37;;;;;;;12.15;8.15;;;;;;;-147.95;100.00;58458.38;4954911;28;20568;-85
2024/01/30 01:59:08;;;;;;;13.02;8.23;;;;;;;-147.95;100.00;58458.38;4954448;28;20068;-85
2024/01/30 02:01:37;;;;;;;16.50;8.65;;;;;;;-147.95;100.00;58458.38;4967512;28;20031;-85
2024/01/30 02:04:04;;;;;;;15.43;8.52;;;;;;;-147.95;100.00;58458.38;4967781;28;20027;-85
2024/01/30 02:06:31;;;;;;;12.15;8.32;;;;;;;-147.95;100.00;58458.38;4954287;28;20043;-85
2024/01/30 02:08:57;;;;;;;11.63;7.25;;;;;;;-147.95;100.00;58458.38;4957376;28;20034;-88
2024/01/30 02:11:24;;;;;;;10.70;8.02;;;;;;;-147.95;100.00;58458.38;4960907;28;20030;-85
2024/01/30 02:13:50;;;;;;;11.88;7.95;;;;;;;-147.95;100.00;58458.38;4958791;28;20046;-86
2024/01/30 02:16:17;;;;;;;17.38;8.40;;;;;;;-147.95;100.00;58458.38;4957711;28;20034;-85
2024/01/30 02:18:45;;;;;;;13.25;8.20;;;;;;;-147.95;100.00;58458.38;4969641;28;20045;-86
2024/01/30 02:21:12;;;;;;;12.68;8.77;;;;;;;-147.95;100.00;58458.38;4971382;28;20529;-84
2024/01/30 02:23:39;;;;;;;14.43;7.93;;;;;;;-147.95;100.00;58458.38;4954103;28;20045;-85
2024/01/30 02:26:04;;;;;;;12.32;8.27;;;;;;;-147.95;100.00;58458.38;4973438;28;20080;-86
2024/01/30 02:28:30;;;;;;;10.13;7.20;;;;;;;-147.95;100.00;58458.38;4941650;28;20496;-84
2024/01/30 02:30:56;;;;;;;11.57;7.78;;;;;;;-147.95;100.00;58458.38;4951209;28;20034;-86
2024/01/30 02:33:22;;;;;;;13.18;8.85;;;;;;;-147.95;100.00;58458.38;4959422;28;20037;-86
2024/01/30 02:35:48;;;;;;;15.70;8.15;;;;;;;-147.95;100.00;58458.38;4941377;28;20137;-84
2024/01/30 02:38:15;;;;;;;10.73;7.90;;;;;;;-147.95;100.00;58458.38;4955953;28;20141;-83
2024/01/30 02:40:41;;;;;;;12.27;7.85;;;;;;;-147.95;100.00;58458.38;4955905;28;20503;-83
2024/01/30 02:43:06;;;;;;;14.35;7.65;;;;;;;-147.95;100.00;58458.38;4960865;28;20034;-83
2024/01/30 02:45:32;;;;;;;12.27;7.82;;;;;;;-147.95;100.00;58458.38;4940531;28;20034;-84
2024/01/30 02:47:57;;;;;;;12.77;8.32;;;;;;;-147.95;100.00;58458.38;4969133;28;20030;-84
2024/01/30 02:50:23;;;;;;;12.90;7.82;;;;;;;-147.95;100.00;58458.38;4989220;28;20109;-84
2024/01/30 02:52:48;;;;;;;10.57;8.00;;;;;;;-147.95;100.00;58458.38;4952359;28;20124;-84
2024/01/30 02:55:17;;;;;;;10.73;8.23;;;;;;;-147.95;100.00;58458.38;4953796;28;20042;-84
2024/01/30 02:57:44;;;;;;;10.93;7.85;;;;;;;-147.95;100.00;58458.38;4965665;28;20030;-84
2024/01/30 03:00:10;;;;;;;9.48;7.55;;;;;;;-147.95;100.00;58458.38;4954184;28;20031;-84
2024/01/30 03:02:36;;;;;;;13.40;8.30;;;;;;;-147.95;100.00;58458.38;4956745;28;20373;-84
2024/01/30 03:05:04;;;;;;;12.90;8.38;;;;;;;-147.95;100.00;58458.38;4971156;28;20121;-84
2024/01/30 03:07:30;;;;;;;25.67;8.35;;;;;;;-147.95;100.00;58458.38;4956601;28;20808;-83
2024/01/30 03:09:55;;;;;;;12.48;7.50;;;;;;;-147.95;100.00;58458.38;4954387;28;20133;-83
2024/01/30 03:12:23;;;;;;;13.82;7.80;;;;;;;-147.95;100.00;58458.38;4958106;28;20074;-84
2024/01/30 03:14:49;;;;;;;11.88;8.32;;;;;;;-147.95;100.00;58458.38;4954207;28;20026;-84
2024/01/30 03:17:16;;;;;;;15.70;8.05;;;;;;;-147.95;100.00;58458.38;4939200;28;20415;-84
2024/01/30 03:19:42;;;;;;;15.93;7.63;;;;;;;-147.95;100.00;58458.38;4986312;28;20404;-84
2024/01/30 03:22:07;;;;;;;12.80;7.93;;;;;;;-147.95;100.00;58458.38;4963340;28;20026;-84
2024/01/30 03:24:33;;;;;;;10.88;7.13;;;;;;;-147.95;100.00;58458.38;4952899;28;20504;-83
2024/01/30 03:26:58;;;;;;;9.55;7.35;;;;;;;-147.95;100.00;58458.38;4953158;28;20026;-84
2024/01/30 03:29:24;;;;;;;13.30;7.35;;;;;;;-147.95;100.00;58458.38;4956104;28;20034;-84
2024/01/30 03:31:53;;;;;;;15.23;7.70;;;;;;;-147.95;100.00;58458.38;4972044;28;20113;-83
2024/01/30 03:34:18;;;;;;;11.38;7.53;;;;;;;-147.95;100.00;58458.38;4988849;28;20038;-83
2024/01/30 03:36:45;;;;;;;10.35;7.03;;;;;;;-147.95;100.00;58458.38;4959903;28;20070;-83
2024/01/30 03:39:10;;;;;;;16.58;7.10;;;;;;;-147.95;100.00;58458.38;4955003;28;20089;-83
2024/01/30 03:41:36;;;;;;;12.68;7.68;;;;;;;-147.95;100.00;58458.38;4938640;28;20023;-83
2024/01/30 03:44:01;;;;;;;11.23;7.18;;;;;;;-147.95;100.00;58458.38;4938857;28;20121;-84
2024/01/30 03:46:27;;;;;;;11.68;7.07;;;;;;;-147.95;100.00;58458.38;4941069;28;20484;-86
2024/01/30 03:48:53;;;;;;;9.07;6.70;;;;;;;-147.95;100.00;58458.38;4956842;28;20044;-86
2024/01/30 03:51:19;;;;;;;9.68;7.35;;;;;;;-147.95;100.00;58458.38;4941416;28;20061;-86
2024/01/30 03:53:46;;;;;;;10.90;7.68;;;;;;;-147.95;100.00;58458.38;4973908;28;20480;-85
2024/01/30 03:56:15;;;;;;;9.95;6.65;;;;;;;-147.95;100.00;58458.38;4964476;28;20035;-85
2024/01/30 03:58:41;;;;;;;8.85;6.70;;;;;;;-147.95;100.00;58458.38;4959000;28;20046;-85
2024/01/30 04:01:06;;;;;;;12.00;7.38;;;;;;;-147.95;100.00;58458.38;4972409;28;20587;-85
2024/01/30 04:03:31;;;;;;;9.23;6.63;;;;;;;-147.95;100.00;58458.38;4940107;28;20042;-85
2024/01/30 04:05:57;;;;;;;11.23;7.35;;;;;;;-147.95;100.00;58458.38;4957112;28;20042;-85
2024/01/30 04:08:24;;;;;;;10.65;6.90;;;;;;;-147.95;100.00;58458.38;4940738;28;20459;-85
2024/01/30 04:10:49;;;;;;;10.55;6.60;;;;;;;-147.95;100.00;58458.38;4990393;28;20041;-86
2024/01/30 04:13:14;;;;;;;14.32;7.32;;;;;;;-147.95;100.00;58458.38;4951479;28;20034;-86
2024/01/30 04:15:40;;;;;;;10.55;6.65;;;;;;;-147.95;100.00;58458.38;4955705;28;20046;-86
2024/01/30 04:18:06;;;;;;;10.52;7.00;;;;;;;-147.95;100.00;58458.38;4957188;28;20037;-86
2024/01/30 04:20:31;;;;;;;8.60;6.25;;;;;;;-147.95;100.00;58458.38;4957404;28;20068;-87
2024/01/30 04:22:57;;;;;;;11.68;6.90;;;;;;;-147.95;100.00;58458.38;4940995;28;20061;-86
2024/01/30 04:25:22;;;;;;;8.27;6.70;;;;;;;-147.95;100.00;58458.38;4971626;28;21320;-86
2024/01/30 04:27:48;;;;;;;8.48;6.45;;;;;;;-147.95;100.00;58458.38;4940163;28;20060;-85
2024/01/30 04:30:13;;;;;;;8.32;6.15;;;;;;;-147.95;100.00;58458.38;4973514;28;20380;-86
2024/01/30 04:32:39;;;;;;;10.68;5.93;;;;;;;-147.95;100.00;58458.38;4941754;28;20035;-86
2024/01/30 04:35:04;;;;;;;10.68;6.47;;;;;;;-147.95;100.00;58458.38;4957237;28;20030;-86
2024/01/30 04:37:30;;;;;;;12.18;6.65;;;;;;;-147.95;100.00;58458.38;4941333;28;20488;-86
2024/01/30 04:39:57;;;;;;;10.80;6.60;;;;;;;-147.95;100.00;58458.38;4955603;28;20545;-86
2024/01/30 04:42:23;;;;;;;11.68;6.32;;;;;;;-147.95;100.00;58458.38;4941498;28;20365;-86
2024/01/30 04:44:49;;;;;;;8.18;6.07;;;;;;;-147.95;100.00;58458.38;4959884;28;20427;-85
2024/01/30 04:47:17;;;;;;;10.50;6.53;;;;;;;-147.95;100.00;58458.38;4974984;28;20030;-86
2024/01/30 04:49:42;;;;;;;7.55;5.88;;;;;;;-147.95;100.00;58458.38;4979109;28;20030;-86
2024/01/30 04:52:10;;;;;;;11.38;6.68;;;;;;;-147.95;100.00;58458.38;4976443;28;20137;-85
2024/01/30 04:54:35;;;;;;;12.70;6.35;;;;;;;-147.95;100.00;58458.38;4960178;28;20125;-85
2024/01/30 04:57:08;;;;;;;12.95;6.40;;;;;;;-147.95;100.00;58458.38;4955634;28;20185;-84
2024/01/30 04:59:36;;;;;;;8.35;6.22;;;;;;;-147.95;100.00;58458.38;4955616;28;20038;-84
2024/01/30 05:02:01;;;;;;;8.93;6.95;;;;;;;-147.95;100.00;58458.38;4937114;28;20381;-84
2024/01/30 05:04:28;;;;;;;9.70;6.53;;;;;;;-147.95;100.00;58458.38;4971517;28;20479;-83
2024/01/30 05:06:53;;;;;;;7.45;6.30;;;;;;;-147.95;100.00;58458.38;4939239;28;20465;-83
2024/01/30 05:09:19;;;;;;;13.43;6.50;;;;;;;-147.95;100.00;58458.38;4943290;28;20058;-84
2024/01/30 05:11:44;;;;;;;11.05;6.93;;;;;;;-147.95;100.00;58458.38;4958336;28;20032;-83
2024/01/30 05:14:11;;;;;;;9.80;6.05;;;;;;;-147.95;100.00;58458.38;4973392;28;20038;-82
2024/01/30 05:16:38;;;;;;;9.75;6.55;;;;;;;-147.95;100.00;58458.38;4975272;28;20522;-83
2024/01/30 05:19:04;;;;;;;11.88;6.80;;;;;;;-147.95;100.00;58458.38;4971962;28;20113;-83
2024/01/30 05:21:29;;;;;;;8.93;5.97;;;;;;;-147.95;100.00;58458.38;4958481;28;20045;-83
2024/01/30 05:23:57;;;;;;;7.03;5.97;;;;;;;-147.95;100.00;58458.38;4959590;28;20439;-83
2024/01/30 05:26:23;;;;;;;10.48;6.50;;;;;;;-147.95;100.00;58458.38;4955294;28;20035;-84
2024/01/30 05:28:49;;;;;;;9.68;6.60;;;;;;;-147.95;100.00;58458.38;4970132;28;20035;-83
2024/01/30 05:31:16;;;;;;;10.32;6.40;;;;;;;-147.95;100.00;58458.38;4955710;28;20030;-86
2024/01/30 05:33:42;;;;;;;9.25;6.88;;;;;;;-147.95;100.00;58458.38;4957101;28;20458;-82
2024/01/30 05:36:07;;;;;;;9.77;6.20;;;;;;;-147.95;100.00;58458.38;4959179;28;20559;-82
2024/01/30 05:38:33;;;;;;;10.45;6.47;;;;;;;-147.95;100.00;58458.38;4959401;28;20034;-83
2024/01/30 05:40:59;;;;;;;9.63;6.25;;;;;;;-147.95;100.00;58458.38;4954542;28;20058;-83
2024/01/30 05:43:25;;;;;;;10.38;6.07;;;;;;;-147.95;100.00;58458.38;4942036;28;20069;-83
2024/01/30 05:45:51;;;;;;;11.98;5.95;;;;;;;-147.95;100.00;58458.38;4961900;28;20034;-83
2024/01/30 05:48:18;;;;;;;10.20;6.00;;;;;;;-147.95;100.00;58458.38;4975960;28;20125;-83
2024/01/30 05:50:46;;;;;;;10.52;5.93;;;;;;;-147.95;100.00;58458.38;4991331;28;20033;-83
2024/01/30 05:53:11;;;;;;;12.23;6.00;;;;;;;-147.95;100.00;58458.38;4945077;28;20117;-82
2024/01/30 05:55:37;;;;;;;9.00;5.63;;;;;;;-147.95;100.00;58458.38;4943774;28;20043;-82
2024/01/30 05:58:04;;;;;;;12.68;5.85;;;;;;;-147.95;100.00;58458.38;4960992;28;20500;-83
2024/01/30 06:00:30;;;;;;;9.93;6.20;;;;;;;-147.95;100.00;58458.38;4953284;28;20061;-82
2024/01/30 06:02:56;;;;;;;9.30;6.30;;;;;;;-147.95;100.00;58458.38;4956545;28;20431;-82
2024/01/30 06:05:21;;;;;;;8.45;6.25;;;;;;;-147.95;100.00;58458.38;4954086;28;20400;-82
2024/01/30 06:07:47;;;;;;;11.07;6.28;;;;;;;-147.95;100.00;58458.38;4953044;28;20058;-82
2024/01/30 06:10:14;;;;;;;9.25;5.82;;;;;;;-147.95;100.00;58458.38;4956688;28;20094;-82
2024/01/30 06:12:39;;;;;;;7.18;5.70;;;;;;;-147.95;100.00;58458.38;4939363;28;20042;-82
2024/01/30 06:15:07;;;;;;;11.88;6.35;;;;;;;-147.95;100.00;58458.38;4987438;28;20108;-81
2024/01/30 06:17:33;;;;;;;12.43;6.15;;;;;;;-147.95;100.00;58458.38;4955517;28;20085;-82
2024/01/30 06:19:59;;;;;;;9.75;5.93;;;;;;;-147.95;100.00;58458.38;4940035;28;20034;-82
2024/01/30 06:22:24;;;;;;;7.63;5.47;;;;;;;-147.95;100.00;58458.38;4958415;28;20026;-82
2024/01/30 06:24:51;;;;;;;8.93;5.85;;;;;;;-147.95;100.00;58458.38;4988908;28;20447;-83
2024/01/30 06:27:20;;;;;;;9.93;5.70;;;;;;;-147.95;100.00;58458.38;4957269;28;20113;-82
2024/01/30 06:29:47;;;;;;;6.95;6.07;;;;;;;-147.95;100.00;58458.38;4957117;28;20040;-83
2024/01/30 06:32:13;;;;;;;9.50;5.50;;;;;;;-147.95;100.00;58458.38;4967795;28;20037;-82
2024/01/30 06:34:44;;;;;;;7.35;5.43;;;;;;;-147.95;100.00;58458.38;4971545;28;20612;-83
2024/01/30 06:37:10;;;;;;;7.38;5.78;;;;;;;-147.95;100.00;58458.38;4972265;28;20117;-82
2024/01/30 06:39:36;;;;;;;12.80;5.70;;;;;;;-147.95;100.00;58458.38;4970778;28;20034;-82
2024/01/30 06:42:02;;;;;;;8.05;5.63;;;;;;;-147.95;100.00;58458.38;4987415;28;20033;-83
2024/01/30 06:44:28;;;;;;;12.45;6.45;;;;;;;-147.95;100.00;58458.38;4940710;28;20037;-82
2024/01/30 06:46:54;;;;;;;9.13;6.05;;;;;;;-147.95;100.00;58458.38;4937745;28;20035;-82
2024/01/30 06:49:21;;;;;;;8.10;5.97;;;;;;;-147.95;100.00;58458.38;4989402;28;20063;-82
2024/01/30 06:51:47;;;;;;;7.65;5.07;;;;;;;-147.95;100.00;58458.38;4985722;28;20737;-82
2024/01/30 06:54:14;;;;;;;6.53;5.30;;;;;;;-147.95;100.00;58458.38;4967712;28;20041;-82
2024/01/30 06:56:40;;;;;;;9.07;5.63;;;;;;;-147.95;100.00;58458.38;4966785;28;20121;-82
2024/01/30 06:59:08;;;;;;;7.07;5.32;;;;;;;-147.95;100.00;58458.38;4952838;28;20121;-83
2024/01/30 07:01:33;;;;;;;8.40;5.65;;;;;;;-147.95;100.00;58458.38;4956341;28;20034;-82
2024/01/30 07:03:59;;;;;;;8.57;5.82;;;;;;;-147.95;100.00;58458.38;4956679;28;20040;-82
2024/01/30 07:06:25;;;;;;;7.60;5.82;;;;;;;-147.95;100.00;58458.38;4971567;28;20400;-82
2024/01/30 07:08:50;;;;;;;6.72;5.38;;;;;;;-147.95;100.00;58458.38;4952438;28;20135;-82
2024/01/30 07:11:22;;;;;;;8.80;5.95;;;;;;;-147.95;100.00;58458.38;4950926;28;20051;-82
2024/01/30 07:13:48;;;;;;;12.85;5.90;;;;;;;-147.95;100.00;58458.38;4950068;28;20031;-82
2024/01/30 07:16:13;;;;;;;7.28;5.53;;;;;;;-147.95;100.00;58458.38;4970115;28;20054;-88
2024/01/30 07:18:39;;;;;;;7.55;5.45;;;;;;;-147.95;100.00;58458.38;4973364;28;20030;-88
2024/01/30 07:21:04;;;;;;;10.20;5.50;;;;;;;-147.95;100.00;58458.38;4940998;28;20425;-88
2024/01/30 07:23:30;;;;;;;9.93;5.40;;;;;;;-147.95;100.00;58458.38;4972365;28;20524;-88
2024/01/30 07:25:56;;;;;;;9.27;5.22;;;;;;;-147.95;100.00;58458.38;4972345;28;20042;-86
2024/01/30 07:28:21;;;;;;;13.90;5.80;;;;;;;-147.95;100.00;58458.38;4937475;28;20023;-88
2024/01/30 07:30:48;;;;;;;6.40;5.43;;;;;;;-147.95;100.00;58458.38;4941057;28;20053;-88
2024/01/30 07:33:13;;;;;;;9.20;5.82;;;;;;;-147.95;100.00;58458.38;4955119;28;20035;-85
2024/01/30 07:35:39;;;;;;;8.30;5.15;;;;;;;-147.95;100.00;58458.38;4964935;28;20082;-88
2024/01/30 07:38:04;;;;;;;8.88;5.95;;;;;;;-147.95;100.00;58458.38;4958219;28;20031;-88
2024/01/30 07:40:33;;;;;;;12.07;6.35;;;;;;;-147.95;100.00;58458.38;4951930;28;20121;-92
2024/01/30 07:42:58;;;;;;;10.00;5.90;;;;;;;-147.95;100.00;58458.38;4939091;28;20138;-91
2024/01/30 07:45:27;;;;;;;7.68;5.45;;;;;;;-147.95;100.00;58458.38;4957497;28;20042;-89
2024/01/30 07:47:52;;;;;;;8.63;5.90;;;;;;;-147.95;100.00;58458.38;4940682;28;20035;-88
2024/01/30 07:50:18;;;;;;;10.75;5.75;;;;;;;-147.95;100.00;58458.38;4970362;28;20043;-88
2024/01/30 07:52:44;;;;;;;11.48;5.60;;;;;;;-147.95;100.00;58458.38;4943750;28;20131;-90
2024/01/30 07:55:12;;;;;;;11.23;6.18;;;;;;;-147.95;100.00;58458.38;4942298;28;20118;-89
2024/01/30 07:57:39;;;;;;;10.93;5.60;;;;;;;-147.95;100.00;58458.38;4955595;29;20106;-91
2024/01/30 08:00:07;;;;;;;10.70;6.25;;;;;;;-147.95;100.00;58458.38;4952729;28;20042;-93
2024/01/30 08:02:32;;;;;;;7.95;5.15;;;;;;;-147.95;100.00;58458.38;4959650;28;20034;-93
2024/01/30 08:04:58;;;;;;;8.27;5.30;;;;;;;-147.95;100.00;58458.38;4957301;28;20444;-92
2024/01/30 08:07:23;;;;;;;7.43;5.20;;;;;;;-147.95;100.00;58458.38;4960433;28;20074;-93
2024/01/30 08:09:49;;;;;;;10.65;6.30;;;;;;;-147.95;100.00;58458.38;4965626;28;20054;-92
2024/01/30 08:12:14;;;;;;;8.40;5.13;;;;;;;-147.95;100.00;58458.38;4968882;28;20070;-91
2024/01/30 08:14:41;;;;;;;9.52;5.35;;;;;;;-147.95;100.00;58458.38;4987100;28;20038;-95
2024/01/30 08:17:07;;;;;;;8.18;5.38;;;;;;;-147.95;100.00;58458.38;4968882;28;20023;-93
2024/01/30 08:19:33;;;;;;;9.35;5.57;;;;;;;-147.95;100.00;58458.38;4967094;28;20049;-91
2024/01/30 08:21:58;;;;;;;7.88;5.38;;;;;;;-147.95;100.00;58458.38;5004360;28;20054;-91
2024/01/30 08:24:23;;;;;;;7.70;5.10;;;;;;;-147.95;100.00;58458.38;4983803;28;20022;-89
2024/01/30 08:26:51;;;;;;;9.40;5.30;;;;;;;-147.95;100.00;58458.38;4996574;28;20026;-91
2024/01/30 08:29:16;;;;;;;9.48;4.80;;;;;;;-147.95;100.00;58458.38;4948244;28;20044;-92
2024/01/30 08:31:42;;;;;;;6.75;4.78;;;;;;;-147.95;100.00;58458.38;4986739;28;20165;-90
2024/01/30 08:34:09;;;;;;;10.00;4.82;;;;;;;-147.95;100.00;58458.38;4976889;28;20092;-90
2024/01/30 08:36:34;;;;;;;7.60;5.10;;;;;;;-147.95;100.00;58458.38;4948018;28;20034;-89
2024/01/30 08:39:01;;;;;;;6.72;4.57;;;;;;;-147.95;100.00;58458.38;4951461;28;20096;-89
2024/01/30 08:41:26;;;;;;;8.90;4.65;;;;;;;-147.95;100.00;58458.38;4998695;28;20026;-90
2024/01/30 08:43:54;;;;;;;9.57;5.20;;;;;;;-147.95;100.00;58458.38;4960703;28;20130;-90
2024/01/30 08:46:20;;;;;;;7.30;5.43;;;;;;;-147.95;100.00;58458.38;4977323;28;20026;-90
2024/01/30 08:48:46;;;;;;;8.55;5.63;;;;;;;-147.95;100.00;58458.38;4978148;28;20053;-89
2024/01/30 08:51:15;;;;;;;7.00;5.00;;;;;;;-147.95;100.00;58458.38;4963051;28;20065;-91
2024/01/30 08:53:40;;;;;;;10.68;5.43;;;;;;;-147.95;100.00;58458.38;4964268;28;20031;-90
2024/01/30 08:56:06;;;;;;;9.38;5.28;;;;;;;-147.95;100.00;58458.38;4965423;28;20038;-90
2024/01/30 08:58:32;;;;;;;8.50;5.15;;;;;;;-147.95;100.00;58458.38;4964949;28;20034;-90
2024/01/30 09:00:57;;;;;;;9.13;4.82;;;;;;;-147.95;100.00;58458.38;4962653;28;20038;-90
2024/01/30 09:03:22;;;;;;;10.95;5.57;;;;;;;-147.95;100.00;58458.38;4963852;28;20030;-90
2024/01/30 09:05:48;;;;;;;7.80;5.03;;;;;;;-147.95;100.00;58458.38;4978006;28;20030;-91
2024/01/30 09:08:13;;;;;;;9.30;5.00;;;;;;;-147.95;100.00;58458.38;4963277;28;20054;-90
2024/01/30 09:10:39;;;;;;;5.70;4.70;;;;;;;-147.95;100.00;58458.38;4989574;28;20034;-91
2024/01/30 09:13:07;;;;;;;6.82;4.57;;;;;;;-147.95;100.00;58458.38;4959007;28;20103;-90
2024/01/30 09:15:33;;;;;;;11.30;5.28;;;;;;;-147.95;100.00;58458.38;4978870;28;20066;-91
2024/01/30 09:17:58;;;;;;;9.10;4.78;;;;;;;-147.95;100.00;58458.38;4961272;28;20114;-91
2024/01/30 09:20:23;;;;;;;9.27;5.40;;;;;;;-147.95;100.00;58458.38;4958935;28;20031;-91
2024/01/30 09:22:49;;;;;;;7.07;4.65;;;;;;;-147.95;100.00;58458.38;4954442;28;20023;-91
2024/01/30 09:25:15;;;;;;;9.57;5.22;;;;;;;-147.95;100.00;58458.38;4977968;28;20030;-90
2024/01/30 09:27:40;;;;;;;7.80;4.90;;;;;;;-147.95;100.00;58458.38;4959771;28;20038;-89
2024/01/30 09:30:07;;;;;;;5.80;4.70;;;;;;;-147.95;100.00;58458.38;4970133;28;20054;-90
2024/01/30 09:32:32;;;;;;;9.38;4.95;;;;;;;-147.95;100.00;58458.38;4962291;28;20038;-92
2024/01/30 09:34:58;;;;;;;7.82;5.63;;;;;;;-147.95;100.00;58458.38;4978544;28;20034;-89
2024/01/30 09:37:24;;;;;;;8.90;5.10;;;;;;;-147.95;100.00;58458.38;4996648;28;20551;-84
2024/01/30 09:39:50;;;;;;;8.77;4.97;;;;;;;-147.95;100.00;58458.38;4936110;28;20073;-83
2024/01/30 09:42:37;;;;;;;9.75;5.20;;;;;;;-147.95;100.00;58458.38;4973737;28;20057;-83
2024/01/30 09:45:06;;;;;;;9.75;5.10;;;;;;;-147.95;100.00;58458.38;4983769;28;20060;-83
2024/01/30 09:47:44;;;;;;;8.18;5.03;;;;;;;-147.95;100.00;58458.38;4958889;28;20031;-83
2024/01/30 09:50:11;;;;;;;8.90;5.68;;;;;;;-147.95;100.00;58458.38;4986328;28;20026;-83
2024/01/30 09:52:38;;;;;;;7.90;4.45;;;;;;;-147.95;100.00;58458.38;4972299;28;20042;-83
2024/01/30 09:55:05;;;;;;;11.35;4.82;;;;;;;-147.95;100.00;58458.38;4957649;28;20351;-84
2024/01/30 09:57:30;;;;;;;7.75;4.47;;;;;;;-147.95;100.00;58458.38;4960183;28;20038;-83
2024/01/30 09:59:56;;;;;;;9.18;4.85;;;;;;;-147.95;100.00;58458.38;4939773;28;20047;-84
2024/01/30 10:02:22;;;;;;;7.50;5.30;;;;;;;-147.95;100.00;58458.38;4956794;28;20939;-85
2024/01/30 10:04:49;;;;;;;13.70;5.20;;;;;;;-147.95;100.00;58458.38;4951657;28;20033;-85
2024/01/30 10:07:15;;;;;;;7.63;5.15;;;;;;;-147.95;100.00;58458.38;4973811;28;20037;-85
2024/01/30 10:09:40;;;;;;;8.13;4.85;;;;;;;-147.95;100.00;58458.38;4957488;28;20054;-85
2024/01/30 10:12:07;;;;;;;10.48;5.35;;;;;;;-147.95;100.00;58458.38;4975794;28;20061;-84
2024/01/30 10:14:33;;;;;;;11.82;5.18;;;;;;;-147.95;100.00;58458.38;4961669;28;20061;-85
2024/01/30 10:16:59;;;;;;;9.05;5.20;;;;;;;-147.95;100.00;58458.38;4942368;28;20113;-85
2024/01/30 10:19:25;;;;;;;8.90;4.95;;;;;;;-147.95;100.00;58458.38;4968110;28;20026;-85
2024/01/30 10:21:51;;;;;;;9.27;5.32;;;;;;;-147.95;100.00;58458.38;4941522;28;20047;-85
2024/01/30 10:24:17;;;;;;;9.73;5.25;;;;;;;-147.95;100.00;58458.38;4941425;28;20042;-85
2024/01/30 10:26:46;;;;;;;13.30;4.90;;;;;;;-147.95;100.00;58458.38;4938726;28;20053;-85
2024/01/30 10:29:14;;;;;;;8.45;5.60;;;;;;;-147.95;100.00;58458.38;4951857;28;21166;-85
2024/01/30 10:31:40;;;;;;;7.78;4.88;;;;;;;-147.95;100.00;58458.38;4944299;28;20042;-84
2024/01/30 10:34:08;;;;;;;9.15;5.28;;;;;;;-147.95;100.00;58458.38;4952236;28;20038;-85
2024/01/30 10:36:41;;;;;;;10.20;5.10;;;;;;;-147.95;100.00;58458.38;4955863;28;20125;-85
2024/01/30 10:39:07;;;;;;;9.30;5.13;;;;;;;-147.95;100.00;58458.38;4948182;28;20037;-84
2024/01/30 10:41:43;;;;;;;7.20;4.93;;;;;;;-147.95;100.00;58458.38;4984812;28;20085;-85
2024/01/30 10:44:10;;;;;;;10.02;5.22;;;;;;;-147.95;100.00;58458.38;4966609;28;20038;-84
2024/01/30 10:46:38;;;;;;;12.13;4.75;;;;;;;-147.95;100.00;58458.38;4983060;28;20042;-84
2024/01/30 10:49:04;;;;;;;11.38;5.10;;;;;;;-147.95;100.00;58458.38;4971742;28;20496;-84
2024/01/30 10:51:32;;;;;;;15.55;5.60;;;;;;;-147.95;100.00;58458.38;4986831;28;20118;-85
2024/01/30 10:54:00;;;;;;;11.60;5.00;;;;;;;-147.95;100.00;58458.38;4941729;28;20034;-85
2024/01/30 10:56:27;;;;;;;12.55;5.72;;;;;;;-147.95;100.00;58458.38;4955776;28;20042;-84
2024/01/30 10:58:54;;;;;;;9.25;5.43;;;;;;;-147.95;100.00;58458.38;4989474;28;20752;-85
2024/01/30 11:01:24;;;;;;;12.82;5.90;;;;;;;-147.95;100.00;58458.38;4954350;28;20058;-84